Time;durP1;ratioP1;P1;durP2;ratioP2;P2;SDS_P1;SDS_P2;PMS_P1;PMS_P2;Temp;Humidity;BMP_temperature;BMP_pressure;BME280_temperature;BME280_humidity;BME280_pressure;Samples;Min_cycle;Max_cycle;Signal;HPM_P1;HPM_P2
2021/03/29 00:01:15;;;;;;;8.07;4.67;;;8.50;99.90;;;;;;5077409;28;20412;-81
2021/03/29 00:03:41;;;;;;;8.30;4.83;;;8.60;99.90;;;;;;5077042;28;20508;-81
2021/03/29 00:06:07;;;;;;;10.17;5.20;;;8.40;99.90;;;;;;5060246;28;20540;-82
2021/03/29 00:08:34;;;;;;;8.67;4.73;;;8.40;99.90;;;;;;5043843;28;20211;-82
2021/03/29 00:11:01;;;;;;;7.90;5.20;;;8.50;99.90;;;;;;5077388;28;20804;-81
2021/03/29 00:13:30;;;;;;;8.67;3.80;;;8.70;99.90;;;;;;5060879;28;20447;-82
2021/03/29 00:15:57;;;;;;;8.10;3.50;;;8.70;99.90;;;;;;5044150;28;20833;-82
2021/03/29 00:18:23;;;;;;;8.93;4.43;;;8.80;99.90;;;;;;5060620;28;20394;-81
2021/03/29 00:21:07;;;;;;;5.80;4.37;;;8.70;99.90;;;;;;5062086;28;20413;-82
2021/03/29 00:23:35;;;;;;;12.13;4.40;;;8.60;99.90;;;;;;5042317;28;20862;-81
2021/03/29 00:26:01;;;;;;;5.17;4.00;;;8.60;99.90;;;;;;5059405;28;20398;-81
2021/03/29 00:28:27;;;;;;;6.10;4.30;;;8.70;99.90;;;;;;5059626;28;20780;-82
2021/03/29 00:30:53;;;;;;;7.33;4.57;;;8.40;99.90;;;;;;5059438;28;20410;-81
2021/03/29 00:33:21;;;;;;;5.00;4.33;;;8.30;99.90;;;;;;5059066;28;20160;-82
2021/03/29 00:35:49;;;;;;;11.57;4.47;;;8.30;99.90;;;;;;5059143;28;20398;-82
2021/03/29 00:38:16;;;;;;;6.93;4.43;;;8.20;99.90;;;;;;5059074;28;20402;-82
2021/03/29 00:40:48;;;;;;;5.47;4.57;;;8.20;99.90;;;;;;5058213;28;20490;-81
2021/03/29 00:43:17;;;;;;;5.17;4.57;;;8.20;99.90;;;;;;5057647;28;20454;-81
2021/03/29 00:45:45;;;;;;;6.40;3.83;;;8.10;99.90;;;;;;5058560;28;20399;-81
2021/03/29 00:48:12;;;;;;;6.87;4.60;;;8.20;99.90;;;;;;5058622;28;20445;-82
2021/03/29 00:50:47;;;;;;;8.40;3.97;;;8.30;99.90;;;;;;5059129;28;20406;-81
2021/03/29 00:53:15;;;;;;;10.27;4.70;;;8.10;99.90;;;;;;5059302;28;20445;-82
2021/03/29 00:55:42;;;;;;;6.80;4.90;;;8.10;99.90;;;;;;5028286;28;20417;-82
2021/03/29 00:58:09;;;;;;;11.30;4.00;;;8.00;99.90;;;;;;5071076;28;20394;-82
2021/03/29 01:00:41;;;;;;;11.90;4.00;;;8.00;99.90;;;;;;5065076;28;20425;-82
2021/03/29 01:03:31;;;;;;;8.43;4.10;;;8.00;99.90;;;;;;5025589;28;20403;-82
2021/03/29 01:06:06;;;;;;;3.53;3.23;;;8.00;99.90;;;;;;5041475;28;20398;-82
2021/03/29 01:08:36;;;;;;;4.00;3.60;;;8.00;99.90;;;;;;5026028;28;20816;-81
2021/03/29 01:11:05;;;;;;;10.30;3.73;;;8.10;99.90;;;;;;5059547;28;20422;-82
2021/03/29 01:13:35;;;;;;;5.63;4.23;;;8.10;99.90;;;;;;5060542;28;20387;-82
2021/03/29 01:16:05;;;;;;;5.67;3.97;;;8.10;99.90;;;;;;5059781;28;20816;-82
2021/03/29 01:18:33;;;;;;;5.70;3.67;;;8.20;99.90;;;;;;5059015;28;20387;-82
2021/03/29 01:21:11;;;;;;;8.70;4.10;;;8.10;99.90;;;;;;5043467;28;20477;-82
2021/03/29 01:23:37;;;;;;;6.57;4.73;;;8.00;99.90;;;;;;5044161;28;20624;-82
2021/03/29 01:26:15;;;;;;;9.10;4.43;;;8.00;99.90;;;;;;5043564;28;20511;-82
2021/03/29 01:28:42;;;;;;;6.03;4.07;;;7.80;99.90;;;;;;5059938;28;20829;-81
2021/03/29 01:31:09;;;;;;;11.70;4.63;;;7.70;99.90;;;;;;5076834;28;20500;-81
2021/03/29 01:33:36;;;;;;;5.50;3.60;;;7.70;99.90;;;;;;5076788;28;20838;-82
2021/03/29 01:36:03;;;;;;;6.60;3.40;;;7.80;99.90;;;;;;5079187;28;20421;-82
2021/03/29 01:38:30;;;;;;;7.23;4.50;;;7.80;99.90;;;;;;5077881;28;20421;-81
2021/03/29 01:40:58;;;;;;;7.93;4.57;;;7.80;99.90;;;;;;5061549;28;20418;-81
2021/03/29 01:43:27;;;;;;;8.57;4.43;;;7.70;99.90;;;;;;5044532;28;20564;-82
2021/03/29 01:45:54;;;;;;;4.93;4.40;;;7.60;99.90;;;;;;5078056;28;20425;-82
2021/03/29 01:48:21;;;;;;;6.27;4.73;;;7.40;99.90;;;;;;5079565;28;20518;-81
2021/03/29 01:50:47;;;;;;;7.10;3.33;;;7.40;99.90;;;;;;5064476;28;20372;-82
2021/03/29 01:53:14;;;;;;;15.60;4.87;;;7.40;99.90;;;;;;5045921;28;20449;-81
2021/03/29 01:55:41;;;;;;;13.17;4.03;;;7.20;99.90;;;;;;5024576;28;20510;-80
2021/03/29 01:58:10;;;;;;;14.23;4.30;;;7.30;99.90;;;;;;5055590;28;20390;-82
2021/03/29 02:00:50;;;;;;;11.30;4.73;;;7.20;99.90;;;;;;5063084;28;20399;-81
2021/03/29 02:03:17;;;;;;;12.20;4.13;;;7.20;99.90;;;;;;5061721;28;20394;-81
2021/03/29 02:05:46;;;;;;;5.90;4.57;;;7.30;99.90;;;;;;5061893;28;20619;-81
2021/03/29 02:08:16;;;;;;;3.83;3.23;;;7.20;99.90;;;;;;5062760;28;20460;-81
2021/03/29 02:10:42;;;;;;;11.57;5.80;;;7.20;99.90;;;;;;5045357;28;20422;-81
2021/03/29 02:13:13;;;;;;;6.53;4.87;;;7.30;99.90;;;;;;5044327;28;20478;-81
2021/03/29 02:15:39;;;;;;;4.73;4.07;;;7.20;99.90;;;;;;5057381;28;20399;-80
2021/03/29 02:18:18;;;;;;;14.87;6.10;;;7.20;99.90;;;;;;5067454;28;20793;-79
2021/03/29 02:20:45;;;;;;;8.03;3.80;;;7.20;99.90;;;;;;5051157;28;20402;-79
2021/03/29 02:23:11;;;;;;;13.33;4.60;;;7.30;99.90;;;;;;5069119;28;20395;-79
2021/03/29 02:25:38;;;;;;;4.17;3.07;;;7.40;99.90;;;;;;5067923;28;20406;-79
2021/03/29 02:28:05;;;;;;;9.47;3.60;;;7.40;99.90;;;;;;5067156;28;20202;-79
2021/03/29 02:30:37;;;;;;;6.10;3.97;;;7.50;99.90;;;;;;5065034;28;20456;-80
2021/03/29 02:33:06;;;;;;;6.93;3.70;;;7.60;99.90;;;;;;5043694;28;20398;-79
2021/03/29 02:35:34;;;;;;;9.10;4.63;;;7.60;99.90;;;;;;5060368;28;20434;-80
2021/03/29 02:38:00;;;;;;;12.43;5.53;;;7.50;99.90;;;;;;5044310;28;20458;-80
2021/03/29 02:40:27;;;;;;;13.10;4.87;;;7.40;99.90;;;;;;5043609;28;20391;-80
2021/03/29 02:42:57;;;;;;;7.20;4.80;;;7.40;99.90;;;;;;5061460;28;20540;-80
2021/03/29 02:45:32;;;;;;;7.33;4.40;;;7.30;99.90;;;;;;5062195;28;20509;-81
2021/03/29 02:48:08;;;;;;;5.43;3.90;;;7.40;99.90;;;;;;5044187;28;20438;-80
2021/03/29 02:50:36;;;;;;;5.23;4.70;;;7.40;99.90;;;;;;5047681;28;20390;-79
2021/03/29 02:53:10;;;;;;;9.87;4.73;;;7.30;99.90;;;;;;5051827;28;20425;-81
2021/03/29 02:55:37;;;;;;;13.13;5.87;;;7.30;99.90;;;;;;5032693;28;20401;-82
2021/03/29 02:58:05;;;;;;;5.47;4.77;;;7.20;99.90;;;;;;5046518;28;20401;-82
2021/03/29 03:00:34;;;;;;;6.23;3.60;;;7.10;99.90;;;;;;5029305;28;20394;-81
2021/03/29 03:03:02;;;;;;;5.73;4.20;;;7.20;99.90;;;;;;5046269;28;20475;-81
2021/03/29 03:05:32;;;;;;;4.53;3.90;;;7.20;99.90;;;;;;5029804;28;20469;-81
2021/03/29 03:07:59;;;;;;;10.57;3.87;;;7.20;99.90;;;;;;5081170;28;20461;-80
2021/03/29 03:10:28;;;;;;;4.43;3.87;;;7.20;99.90;;;;;;5067279;28;20381;-79
2021/03/29 03:12:56;;;;;;;5.23;3.90;;;7.20;99.90;;;;;;5048410;28;20816;-81
2021/03/29 03:15:24;;;;;;;9.00;4.60;;;7.10;99.90;;;;;;5044047;28;20842;-79
2021/03/29 03:17:53;;;;;;;7.63;3.70;;;7.10;99.90;;;;;;5044066;28;20576;-81
2021/03/29 03:20:20;;;;;;;5.70;4.00;;;7.10;99.90;;;;;;5044054;28;20402;-81
2021/03/29 03:22:53;;;;;;;8.27;4.63;;;7.00;99.90;;;;;;5060224;28;20402;-81
2021/03/29 03:25:25;;;;;;;11.03;4.13;;;7.00;99.90;;;;;;5003585;28;20419;-82
2021/03/29 03:27:52;;;;;;;6.53;4.77;;;7.00;99.90;;;;;;5020500;28;20895;-81
2021/03/29 03:30:25;;;;;;;9.00;4.70;;;6.90;99.90;;;;;;4987215;28;20405;-81
2021/03/29 03:32:55;;;;;;;12.43;3.87;;;6.90;99.90;;;;;;4989297;28;20387;-81
2021/03/29 03:35:23;;;;;;;5.80;4.20;;;6.80;99.90;;;;;;5021071;28;20413;-81
2021/03/29 03:37:54;;;;;;;3.87;3.53;;;6.80;99.90;;;;;;5004260;28;20796;-81
2021/03/29 03:40:22;;;;;;;4.60;4.20;;;6.80;99.90;;;;;;5019998;28;20510;-81
2021/03/29 03:42:50;;;;;;;6.53;3.67;;;6.80;99.90;;;;;;4971979;28;20404;-82
2021/03/29 03:45:19;;;;;;;10.53;4.90;;;6.80;99.90;;;;;;5005063;28;20431;-81
2021/03/29 03:47:46;;;;;;;6.20;4.77;;;6.80;99.90;;;;;;5040715;28;20511;-81
2021/03/29 03:50:15;;;;;;;8.77;4.40;;;6.90;99.90;;;;;;5007991;28;20395;-80
2021/03/29 03:52:43;;;;;;;12.30;3.97;;;6.70;99.90;;;;;;5040316;28;20797;-80
2021/03/29 03:55:10;;;;;;;11.20;4.27;;;6.60;99.90;;;;;;5021821;28;20400;-81
2021/03/29 03:57:41;;;;;;;7.70;3.50;;;6.60;99.90;;;;;;5043565;28;20414;-81
2021/03/29 04:00:11;;;;;;;4.70;3.57;;;6.60;99.90;;;;;;5023671;28;20399;-79
2021/03/29 04:02:39;;;;;;;4.83;3.53;;;6.60;99.90;;;;;;5044395;28;20422;-79
2021/03/29 04:05:10;;;;;;;6.00;4.00;;;6.60;99.90;;;;;;5044468;28;20406;-80
2021/03/29 04:07:40;;;;;;;11.13;3.77;;;6.50;99.90;;;;;;5045076;28;21017;-79
2021/03/29 04:10:37;;;;;;;6.90;4.60;;;6.40;99.90;;;;;;5041369;28;20503;-81
2021/03/29 04:12:56;;;;;;;5.13;3.60;;;6.50;99.90;;;;;;5038278;28;20416;-81
2021/03/29 04:15:22;;;;;;;11.87;4.27;;;6.30;99.90;;;;;;5007230;28;20395;-81
2021/03/29 04:17:48;;;;;;;10.60;5.10;;;6.20;99.90;;;;;;5022543;28;20406;-81
2021/03/29 04:20:16;;;;;;;12.47;5.10;;;6.20;99.90;;;;;;5006634;28;20554;-81
2021/03/29 04:22:42;;;;;;;6.13;3.53;;;6.20;99.90;;;;;;5039271;28;20415;-81
2021/03/29 04:25:11;;;;;;;6.53;4.77;;;6.10;99.90;;;;;;5040013;28;20506;-81
2021/03/29 04:27:37;;;;;;;9.30;6.00;;;6.10;99.90;;;;;;5043073;28;20447;-80
2021/03/29 04:30:06;;;;;;;6.40;3.70;;;6.30;99.90;;;;;;5047486;28;20452;-80
2021/03/29 04:32:39;;;;;;;9.67;4.60;;;6.10;99.90;;;;;;5047396;28;20394;-80
2021/03/29 04:35:06;;;;;;;6.87;4.70;;;6.10;99.90;;;;;;5048136;28;20391;-80
2021/03/29 04:37:33;;;;;;;5.07;3.90;;;6.30;99.90;;;;;;5063207;28;20410;-80
2021/03/29 04:40:00;;;;;;;5.23;3.77;;;6.30;99.90;;;;;;5058896;28;20451;-81
2021/03/29 04:42:27;;;;;;;4.47;4.07;;;6.30;99.90;;;;;;5042497;28;20399;-80
2021/03/29 04:44:52;;;;;;;11.83;5.53;;;6.40;99.90;;;;;;5074471;28;20466;-81
2021/03/29 04:47:19;;;;;;;8.63;4.00;;;6.50;99.90;;;;;;5058215;28;20480;-81
2021/03/29 04:49:46;;;;;;;4.90;4.43;;;6.60;99.90;;;;;;5057750;28;20907;-81
2021/03/29 04:52:13;;;;;;;10.57;4.23;;;6.60;99.90;;;;;;5042948;28;20390;-80
2021/03/29 04:54:40;;;;;;;4.23;3.80;;;6.70;99.90;;;;;;5042607;28;20414;-81
2021/03/29 04:57:07;;;;;;;8.87;3.97;;;6.60;99.90;;;;;;5041895;28;20474;-81
2021/03/29 04:59:33;;;;;;;10.33;4.93;;;6.60;99.90;;;;;;5042061;28;20409;-81
2021/03/29 05:02:00;;;;;;;6.30;3.70;;;6.70;99.90;;;;;;5077685;28;20909;-81
2021/03/29 05:04:26;;;;;;;7.87;3.90;;;6.80;99.90;;;;;;5044832;28;20187;-81
2021/03/29 05:06:55;;;;;;;8.10;5.00;;;6.60;99.90;;;;;;5045618;28;20524;-80
2021/03/29 05:09:21;;;;;;;8.87;3.97;;;6.50;99.90;;;;;;5077675;28;20397;-81
2021/03/29 05:11:50;;;;;;;3.63;3.33;;;6.40;99.90;;;;;;5041326;28;20410;-80
2021/03/29 05:14:17;;;;;;;13.93;4.80;;;6.40;99.90;;;;;;5052489;28;20160;-81
2021/03/29 05:16:43;;;;;;;8.30;4.30;;;6.50;99.90;;;;;;5044837;28;20406;-80
2021/03/29 05:19:10;;;;;;;14.33;4.63;;;6.60;99.90;;;;;;5028387;28;20428;-81
2021/03/29 05:21:36;;;;;;;6.70;4.10;;;6.50;99.90;;;;;;5061595;28;20432;-80
2021/03/29 05:24:03;;;;;;;5.40;3.83;;;6.60;99.90;;;;;;5081134;28;20520;-81
2021/03/29 05:26:29;;;;;;;4.90;4.03;;;6.70;99.90;;;;;;5081801;28;20404;-81
2021/03/29 05:28:59;;;;;;;10.63;5.20;;;6.70;99.90;;;;;;5065817;28;20425;-81
2021/03/29 05:31:25;;;;;;;9.80;4.77;;;6.90;99.90;;;;;;5064978;28;20417;-81
2021/03/29 05:33:53;;;;;;;6.30;3.80;;;6.70;99.90;;;;;;5044908;28;20509;-81
2021/03/29 05:36:20;;;;;;;6.80;4.63;;;6.80;99.90;;;;;;5045235;28;20974;-81
2021/03/29 05:38:46;;;;;;;8.10;3.90;;;6.80;99.90;;;;;;5025085;28;20419;-80
2021/03/29 05:41:14;;;;;;;9.97;4.53;;;6.90;99.90;;;;;;5024974;28;20947;-80
2021/03/29 05:43:41;;;;;;;9.43;4.17;;;6.90;99.90;;;;;;5025223;28;20567;-80
2021/03/29 05:46:07;;;;;;;5.20;3.73;;;6.80;99.90;;;;;;5042135;28;20426;-82
2021/03/29 05:48:36;;;;;;;6.00;3.63;;;6.90;99.90;;;;;;5010493;28;20454;-79
2021/03/29 05:51:07;;;;;;;12.70;4.17;;;6.80;99.90;;;;;;5040911;28;20169;-79
2021/03/29 05:53:34;;;;;;;6.40;4.07;;;7.00;99.90;;;;;;5026174;28;20541;-81
2021/03/29 05:56:01;;;;;;;5.30;3.60;;;7.00;99.90;;;;;;5044864;28;20426;-81
2021/03/29 05:58:39;;;;;;;7.07;4.97;;;7.00;99.90;;;;;;5060698;28;20606;-81
2021/03/29 06:01:05;;;;;;;9.53;5.40;;;6.70;99.90;;;;;;5061474;28;20487;-81
2021/03/29 06:03:36;;;;;;;8.40;4.80;;;6.80;99.90;;;;;;5050902;28;20435;-79
2021/03/29 06:06:21;;;;;;;6.70;4.27;;;6.90;99.90;;;;;;5067533;28;20445;-79
2021/03/29 06:08:51;;;;;;;8.20;4.03;;;7.00;99.90;;;;;;5037524;28;20894;-79
2021/03/29 06:11:34;;;;;;;5.43;3.50;;;7.10;99.90;;;;;;5048374;28;20513;-79
2021/03/29 06:14:19;;;;;;;12.60;3.27;;;6.80;99.90;;;;;;5032835;28;20434;-79
2021/03/29 06:16:56;;;;;;;6.53;3.87;;;6.80;99.90;;;;;;5037344;28;20439;-79
2021/03/29 06:19:58;;;;;;;14.57;4.90;;;6.90;99.90;;;;;;5060177;28;20437;-82
2021/03/29 06:22:31;;;;;;;5.43;3.93;;;7.00;99.90;;;;;;5007041;28;20439;-81
2021/03/29 06:25:08;;;;;;;15.07;4.70;;;7.10;99.90;;;;;;5012416;28;20424;-81
2021/03/29 06:27:49;;;;;;;17.67;5.30;;;7.40;99.90;;;;;;5002044;28;20519;-81
2021/03/29 06:30:20;;;;;;;10.67;4.00;;;7.60;99.90;;;;;;5004693;28;20430;-82
2021/03/29 06:33:07;;;;;;;10.33;4.77;;;7.60;99.90;;;;;;5011677;28;20498;-82
2021/03/29 06:35:53;;;;;;;8.10;3.73;;;7.80;99.90;;;;;;5003110;28;20538;-82
2021/03/29 06:38:33;;;;;;;17.10;5.30;;;7.90;99.90;;;;;;5022340;28;20519;-81
2021/03/29 06:41:05;;;;;;;12.30;5.73;;;7.90;99.90;;;;;;5034147;28;20534;-81
2021/03/29 06:43:36;;;;;;;8.03;4.17;;;8.10;99.90;;;;;;5030970;28;20515;-81
2021/03/29 06:46:05;;;;;;;7.93;4.43;;;8.00;99.90;;;;;;5020762;28;20527;-81
2021/03/29 06:48:37;;;;;;;8.93;4.47;;;8.00;99.90;;;;;;5024116;28;20551;-82
2021/03/29 06:51:13;;;;;;;10.03;3.90;;;8.20;99.90;;;;;;5053446;28;20433;-82
2021/03/29 06:53:42;;;;;;;10.17;4.77;;;8.10;99.90;;;;;;5025891;28;20429;-82
2021/03/29 06:56:25;;;;;;;4.20;3.53;;;8.00;99.90;;;;;;5075340;28;20520;-82
2021/03/29 06:58:52;;;;;;;5.37;3.60;;;8.00;99.90;;;;;;5081767;28;20469;-82
2021/03/29 07:01:23;;;;;;;8.20;4.10;;;8.00;99.90;;;;;;5064227;28;20432;-81
2021/03/29 07:03:51;;;;;;;12.80;4.20;;;7.90;99.90;;;;;;5075838;28;20424;-82
2021/03/29 07:06:21;;;;;;;6.40;3.67;;;8.10;99.90;;;;;;5066144;28;20503;-81
2021/03/29 07:08:47;;;;;;;6.97;4.10;;;8.20;99.90;;;;;;5068134;28;20464;-82
2021/03/29 07:11:16;;;;;;;11.37;4.70;;;8.20;99.90;;;;;;5049057;28;20425;-81
2021/03/29 07:13:43;;;;;;;5.07;3.73;;;8.40;99.90;;;;;;5033304;28;20431;-81
2021/03/29 07:16:10;;;;;;;6.47;4.20;;;8.40;99.90;;;;;;5041067;28;20501;-81
2021/03/29 07:18:37;;;;;;;10.60;4.33;;;8.50;99.90;;;;;;5039789;28;20447;-81
2021/03/29 07:21:08;;;;;;;7.23;4.50;;;8.60;99.90;;;;;;5057159;28;20440;-82
2021/03/29 07:23:35;;;;;;;6.03;3.90;;;8.60;99.90;;;;;;5056488;28;20478;-82
2021/03/29 07:26:02;;;;;;;3.50;3.13;;;8.70;99.90;;;;;;5025188;28;20438;-81
2021/03/29 07:28:47;;;;;;;7.17;4.10;;;8.60;99.90;;;;;;5045168;28;20549;-81
2021/03/29 07:31:35;;;;;;;8.20;4.20;;;8.60;99.90;;;;;;5036642;28;20431;-81
2021/03/29 07:34:49;;;;;;;4.13;3.73;;;8.80;99.90;;;;;;5057317;28;20895;-82
2021/03/29 07:37:43;;;;;;;5.63;3.90;;;8.90;99.90;;;;;;5051351;28;20454;-81
2021/03/29 07:40:38;;;;;;;4.03;3.47;;;8.70;99.90;;;;;;5043358;28;20441;-81
2021/03/29 07:43:08;;;;;;;9.50;4.30;;;8.80;99.90;;;;;;5026561;28;20407;-81
2021/03/29 07:45:50;;;;;;;6.93;4.37;;;9.00;99.90;;;;;;5059989;28;20535;-80
2021/03/29 07:48:38;;;;;;;9.17;4.43;;;9.10;99.90;;;;;;5083151;28;20443;-82
2021/03/29 07:51:10;;;;;;;9.13;5.07;;;9.30;99.90;;;;;;5074546;28;20438;-82
2021/03/29 07:53:53;;;;;;;5.90;3.60;;;9.50;99.90;;;;;;5059949;28;20418;-81
2021/03/29 07:56:38;;;;;;;4.83;4.30;;;9.50;99.90;;;;;;5030740;28;20470;-81
2021/03/29 07:59:06;;;;;;;7.30;4.37;;;9.70;99.90;;;;;;5089144;28;20407;-81
2021/03/29 08:02:05;;;;;;;5.93;3.80;;;9.70;99.90;;;;;;5079825;28;20433;-82
2021/03/29 08:05:02;;;;;;;7.03;4.17;;;9.70;99.90;;;;;;5087218;28;20509;-81
2021/03/29 08:07:45;;;;;;;7.83;5.30;;;9.80;99.90;;;;;;5071753;28;20916;-82
2021/03/29 08:10:13;;;;;;;12.10;4.83;;;9.80;99.90;;;;;;5096999;28;20428;-81
2021/03/29 08:12:58;;;;;;;12.90;4.40;;;9.80;99.90;;;;;;5089997;28;20769;-81
2021/03/29 08:16:04;;;;;;;9.43;3.97;;;9.90;99.90;;;;;;5064125;28;20589;-82
2021/03/29 08:18:50;;;;;;;6.00;3.47;;;10.00;99.90;;;;;;5071904;28;20480;-80
2021/03/29 08:21:55;;;;;;;8.23;4.87;;;10.20;99.90;;;;;;5065463;28;20429;-79
2021/03/29 08:24:33;;;;;;;6.10;4.53;;;10.50;99.90;;;;;;5069856;28;20810;-80
2021/03/29 08:27:31;;;;;;;3.50;3.20;;;10.50;99.90;;;;;;5085429;28;20461;-79
2021/03/29 08:30:14;;;;;;;6.90;4.27;;;10.70;99.90;;;;;;5085415;28;20421;-79
2021/03/29 08:32:40;;;;;;;7.33;3.33;;;10.70;99.90;;;;;;5085630;28;20477;-79
2021/03/29 08:35:12;;;;;;;6.50;3.50;;;11.00;99.90;;;;;;5085063;28;20503;-80
2021/03/29 08:37:43;;;;;;;12.60;3.90;;;11.10;99.90;;;;;;5081698;28;20478;-80
2021/03/29 08:40:27;;;;;;;4.13;2.70;;;11.20;99.90;;;;;;5062987;28;20516;-79
2021/03/29 08:42:55;;;;;;;9.33;3.80;;;11.30;99.90;;;;;;5054886;28;20508;-81
2021/03/29 08:45:24;;;;;;;8.83;4.20;;;11.60;99.90;;;;;;5059315;28;20457;-80
2021/03/29 08:47:54;;;;;;;5.73;3.47;;;11.60;99.90;;;;;;5054342;28;20457;-82
2021/03/29 08:50:25;;;;;;;8.10;3.57;;;11.90;99.90;;;;;;5034009;28;20423;-81
2021/03/29 08:52:58;;;;;;;9.00;2.93;;;12.00;99.90;;;;;;5003144;28;20420;-82
2021/03/29 08:55:27;;;;;;;11.40;3.30;;;12.20;99.90;;;;;;5032560;28;20455;-81
2021/03/29 08:57:54;;;;;;;6.00;4.13;;;12.10;99.90;;;;;;5051414;28;20429;-81
2021/03/29 09:00:23;;;;;;;4.23;3.57;;;12.30;99.90;;;;;;5050721;28;20433;-80
2021/03/29 09:02:49;;;;;;;13.93;3.27;;;12.50;99.90;;;;;;5045729;28;20846;-81
2021/03/29 09:05:17;;;;;;;8.90;3.70;;;12.70;99.90;;;;;;5037610;28;20834;-79
2021/03/29 09:07:47;;;;;;;7.03;3.83;;;12.80;99.90;;;;;;5055394;28;20471;-82
2021/03/29 09:10:23;;;;;;;13.87;4.67;;;13.00;99.90;;;;;;5027101;28;20639;-81
2021/03/29 09:13:00;;;;;;;4.40;2.50;;;13.00;99.90;;;;;;5029343;28;20490;-80
2021/03/29 09:15:28;;;;;;;4.77;2.70;;;13.40;99.90;;;;;;5009473;28;20423;-80
2021/03/29 09:17:59;;;;;;;2.77;2.53;;;13.30;99.90;;;;;;5044477;28;20426;-82
2021/03/29 09:20:28;;;;;;;5.93;3.70;;;13.40;99.90;;;;;;5051677;28;20489;-80
2021/03/29 09:22:57;;;;;;;9.20;3.90;;;13.50;99.90;;;;;;5062845;28;20934;-79
2021/03/29 09:25:30;;;;;;;5.60;4.10;;;13.70;99.90;;;;;;5062196;28;20422;-78
2021/03/29 09:31:13;;;;;;;5.93;3.23;;;14.00;99.90;;;;;;5068725;28;20507;-78
2021/03/29 09:33:42;;;;;;;9.33;3.07;;;14.30;99.90;;;;;;5029448;28;20501;-79
2021/03/29 09:36:12;;;;;;;7.53;3.40;;;14.80;99.90;;;;;;5076853;28;20887;-80
2021/03/29 09:38:42;;;;;;;6.60;3.17;;;14.80;99.90;;;;;;5073463;28;20425;-79
2021/03/29 09:41:31;;;;;;;6.10;2.90;;;14.70;99.90;;;;;;5069780;28;20409;-80
2021/03/29 09:43:58;;;;;;;2.90;2.40;;;15.00;99.90;;;;;;5089844;28;20484;-80
2021/03/29 09:46:29;;;;;;;5.90;2.97;;;15.20;99.90;;;;;;5062822;28;20551;-80
2021/03/29 09:49:14;;;;;;;5.33;3.10;;;15.40;99.90;;;;;;5086569;28;20472;-79
2021/03/29 09:51:44;;;;;;;4.67;3.30;;;15.60;99.90;;;;;;5054646;28;20828;-80
2021/03/29 09:54:26;;;;;;;5.50;3.17;;;15.50;99.90;;;;;;5059894;28;20410;-81
2021/03/29 09:56:54;;;;;;;9.40;3.20;;;15.80;99.90;;;;;;5065681;28;20413;-80
2021/03/29 09:59:30;;;;;;;6.50;3.30;;;16.50;99.90;;;;;;5078330;28;20406;-81
2021/03/29 10:01:58;;;;;;;3.87;3.10;;;16.20;99.90;;;;;;5072658;28;20416;-82
2021/03/29 10:04:24;;;;;;;7.80;3.93;;;16.40;99.90;;;;;;5062487;28;20430;-82
2021/03/29 10:06:52;;;;;;;6.37;3.83;;;16.20;99.90;;;;;;5081845;28;20422;-82
2021/03/29 10:09:30;;;;;;;5.93;4.00;;;16.10;99.90;;;;;;5066720;28;20429;-82
2021/03/29 10:11:56;;;;;;;3.83;3.30;;;16.70;99.90;;;;;;5073958;28;20406;-82
2021/03/29 10:14:31;;;;;;;3.63;2.97;;;16.60;99.90;;;;;;5043166;28;20410;-82
2021/03/29 10:16:57;;;;;;;7.80;3.60;;;17.00;99.90;;;;;;5064961;28;20162;-82
2021/03/29 10:19:30;;;;;;;7.00;3.23;;;17.50;99.90;;;;;;5077517;28;20421;-82
2021/03/29 10:22:10;;;;;;;4.33;2.70;;;17.00;99.90;;;;;;5064296;28;20178;-82
2021/03/29 10:24:57;;;;;;;9.00;3.10;;;17.70;99.90;;;;;;5070731;28;20410;-83
2021/03/29 10:27:23;;;;;;;3.70;2.27;;;17.30;99.90;;;;;;5076613;28;20796;-82
2021/03/29 10:29:49;;;;;;;5.60;2.50;;;17.60;98.80;;;;;;5081189;28;20419;-82
2021/03/29 10:32:18;;;;;;;15.90;3.70;;;18.60;97.80;;;;;;5078068;28;20432;-82
2021/03/29 10:34:46;;;;;;;4.47;2.63;;;19.30;96.30;;;;;;5069092;28;20500;-83
2021/03/29 10:37:25;;;;;;;3.57;1.30;;;19.00;91.60;;;;;;5069789;28;20422;-82
2021/03/29 10:39:54;;;;;;;3.80;1.73;;;18.20;87.50;;;;;;5077268;28;20855;-82
2021/03/29 10:42:25;;;;;;;2.53;2.00;;;19.00;88.10;;;;;;5081830;28;20406;-83
2021/03/29 10:44:51;;;;;;;4.67;3.50;;;19.30;84.40;;;;;;5067382;28;20461;-81
2021/03/29 10:47:17;;;;;;;3.57;2.00;;;19.80;80.10;;;;;;5080710;28;20453;-83
2021/03/29 10:49:43;;;;;;;5.57;2.10;;;20.10;78.60;;;;;;5075389;28;20415;-83
2021/03/29 10:52:10;;;;;;;4.93;1.83;;;19.30;74.70;;;;;;5067796;28;20215;-82
2021/03/29 10:54:36;;;;;;;3.27;1.93;;;19.20;76.10;;;;;;5068426;28;20578;-83
2021/03/29 10:57:10;;;;;;;8.40;2.53;;;20.10;74.10;;;;;;5068240;28;20468;-83
2021/03/29 10:59:35;;;;;;;3.20;2.20;;;20.40;72.40;;;;;;5068394;28;20821;-83
2021/03/29 11:02:02;;;;;;;2.60;2.20;;;21.10;68.80;;;;;;5075491;28;20509;-83
2021/03/29 11:04:28;;;;;;;5.70;1.93;;;20.90;68.50;;;;;;5046313;28;20188;-83
2021/03/29 11:06:54;;;;;;;3.00;1.70;;;21.80;67.00;;;;;;5084138;28;20468;-83
2021/03/29 11:09:21;;;;;;;3.47;2.20;;;21.10;65.20;;;;;;5079893;28;20221;-82
2021/03/29 11:11:47;;;;;;;4.17;2.17;;;20.90;63.40;;;;;;5077539;28;20711;-82
2021/03/29 11:14:13;;;;;;;3.63;2.43;;;21.20;63.90;;;;;;5082584;28;20437;-82
2021/03/29 11:16:39;;;;;;;7.53;2.30;;;21.70;64.40;;;;;;5082068;28;20418;-81
2021/03/29 11:19:05;;;;;;;2.70;1.70;;;22.30;63.50;;;;;;5072775;28;20176;-79
2021/03/29 11:21:32;;;;;;;3.20;2.00;;;22.00;61.10;;;;;;5071159;28;20449;-83
2021/03/29 11:23:58;;;;;;;2.60;2.40;;;22.00;60.30;;;;;;5059416;28;20188;-82
2021/03/29 11:26:24;;;;;;;4.67;2.20;;;21.30;58.60;;;;;;5068372;28;20429;-83
2021/03/29 11:28:50;;;;;;;3.23;1.83;;;21.60;58.50;;;;;;5077429;28;20218;-84
2021/03/29 11:31:16;;;;;;;1.83;1.60;;;22.60;56.20;;;;;;5062909;28;20168;-84
2021/03/29 11:33:42;;;;;;;4.30;2.43;;;22.90;54.80;;;;;;5063468;28;20175;-84
2021/03/29 11:36:08;;;;;;;3.23;2.10;;;23.50;55.40;;;;;;5067760;28;20489;-83
2021/03/29 11:38:37;;;;;;;3.67;2.17;;;23.80;54.20;;;;;;5042907;28;20171;-82
2021/03/29 11:41:03;;;;;;;2.10;1.90;;;23.40;53.40;;;;;;5070609;28;20431;-83
2021/03/29 11:43:29;;;;;;;2.17;2.00;;;22.90;52.40;;;;;;5084782;28;20405;-83
2021/03/29 11:45:56;;;;;;;2.43;1.77;;;22.70;51.80;;;;;;5086639;28;20449;-83
2021/03/29 11:48:22;;;;;;;2.80;2.23;;;23.40;53.10;;;;;;5077934;28;20461;-83
2021/03/29 11:50:47;;;;;;;2.50;2.03;;;23.10;52.20;;;;;;5064078;28;20425;-83
2021/03/29 11:53:13;;;;;;;3.10;1.87;;;22.80;53.20;;;;;;5077634;28;20185;-83
2021/03/29 11:55:39;;;;;;;2.87;2.00;;;23.50;52.40;;;;;;5084985;28;20167;-83
2021/03/29 11:58:05;;;;;;;3.30;1.57;;;23.20;53.10;;;;;;5082346;28;20178;-83
2021/03/29 12:00:35;;;;;;;5.33;2.73;;;24.30;52.20;;;;;;5081547;28;20204;-83
2021/03/29 12:03:14;;;;;;;4.20;1.90;;;25.40;50.90;;;;;;5075091;28;20175;-83
2021/03/29 12:05:49;;;;;;;4.10;2.90;;;26.00;50.00;;;;;;5081714;28;20513;-83
2021/03/29 12:08:26;;;;;;;2.80;1.90;;;23.60;49.50;;;;;;5058844;28;20453;-83
2021/03/29 12:13:41;;;;;;;3.37;2.47;;;22.50;53.20;;;;;;5066825;28;20405;-82
2021/03/29 12:16:07;;;;;;;4.57;2.30;;;24.10;52.90;;;;;;5072707;28;20459;-83
2021/03/29 12:21:20;;;;;;;3.90;2.30;;;23.50;49.00;;;;;;5062961;28;20677;-83
2021/03/29 12:23:49;;;;;;;6.70;2.60;;;22.70;50.30;;;;;;5031601;28;20387;-83
2021/03/29 12:26:15;;;;;;;3.80;2.00;;;23.50;51.20;;;;;;5068482;28;20417;-83
2021/03/29 12:28:45;;;;;;;5.40;2.70;;;24.90;50.20;;;;;;5082640;28;20445;-82
2021/03/29 12:31:13;;;;;;;3.23;2.17;;;22.90;50.60;;;;;;5083370;28;20462;-82
2021/03/29 12:33:39;;;;;;;2.17;1.97;;;22.70;52.50;;;;;;5076076;28;20414;-83
2021/03/29 12:36:06;;;;;;;5.50;2.23;;;23.90;51.90;;;;;;5064888;28;20422;-82
2021/03/29 12:38:36;;;;;;;8.07;2.40;;;23.60;51.10;;;;;;5060497;28;20544;-83
2021/03/29 12:41:06;;;;;;;3.83;1.93;;;22.30;50.90;;;;;;5069988;28;20422;-82
2021/03/29 12:43:37;;;;;;;6.10;2.33;;;23.60;51.00;;;;;;5045245;28;20413;-82
2021/03/29 12:46:05;;;;;;;2.30;2.10;;;22.40;51.10;;;;;;5046631;28;20405;-83
2021/03/29 12:48:34;;;;;;;3.00;2.20;;;21.60;51.10;;;;;;5061703;28;20382;-83
2021/03/29 12:51:03;;;;;;;4.50;2.53;;;23.10;51.40;;;;;;5071127;28;20911;-83
2021/03/29 12:53:30;;;;;;;5.27;2.30;;;22.10;52.00;;;;;;5084773;28;20428;-84
2021/03/29 12:55:56;;;;;;;4.33;2.93;;;23.50;52.10;;;;;;5077636;28;20409;-82
2021/03/29 12:58:26;;;;;;;6.47;2.50;;;24.30;51.70;;;;;;5076998;28;20503;-84
2021/03/29 13:00:54;;;;;;;3.13;2.07;;;24.80;49.10;;;;;;5074339;28;20437;-83
2021/03/29 13:03:24;;;;;;;5.43;2.40;;;23.10;49.40;;;;;;5064942;28;20385;-82
2021/03/29 13:05:56;;;;;;;2.53;2.33;;;24.50;50.10;;;;;;5060872;28;20524;-83
2021/03/29 13:08:26;;;;;;;5.60;2.93;;;24.80;48.60;;;;;;5044533;28;20787;-83
2021/03/29 13:13:34;;;;;;;7.90;1.80;;;25.80;49.30;;;;;;5060666;28;20429;-83
2021/03/29 13:16:01;;;;;;;4.27;2.40;;;26.30;47.30;;;;;;5043586;28;20489;-83
2021/03/29 13:18:27;;;;;;;2.83;1.93;;;25.90;48.20;;;;;;5026425;28;20456;-82
2021/03/29 13:20:55;;;;;;;4.07;2.40;;;23.90;48.10;;;;;;5059271;28;20413;-83